createdAt,value
2023-01-10T00:00:17.246Z,99825.19
2023-01-10T00:01:18.848Z,99820.41
2023-01-10T00:02:21.571Z,99816.16
2023-01-10T00:03:24.098Z,99821.94
2023-01-10T00:04:26.599Z,99828.03
2023-01-10T00:05:29.186Z,99829.81
2023-01-10T00:06:32.169Z,99828.53
2023-01-10T00:07:34.622Z,99839.41
2023-01-10T00:08:36.157Z,99829.50
2023-01-10T00:09:38.635Z,99829.19
2023-01-10T00:10:40.161Z,99836.53
2023-01-10T00:12:00.292Z,99836.09
2023-01-10T00:13:20.691Z,99830.75
2023-01-10T00:14:23.203Z,99841.88
2023-01-10T00:15:24.751Z,99844.72
2023-01-10T00:16:27.222Z,99846.19
2023-01-10T00:17:28.732Z,99838.69
2023-01-10T00:18:31.218Z,99846.28
2023-01-10T00:19:32.789Z,99849.38
2023-01-10T00:20:35.340Z,99855.88
2023-01-10T00:21:39.554Z,99855.56
2023-01-10T00:22:42.037Z,99861.66
2023-01-10T00:23:44.110Z,99856.22
2023-01-10T00:24:46.563Z,99843.13
2023-01-10T00:25:48.090Z,99868.88
2023-01-10T00:26:52.137Z,99861.69
2023-01-10T00:27:57.914Z,99862.63
2023-01-10T00:29:00.404Z,99867.44
2023-01-10T00:30:13.625Z,99856.75
2023-01-10T00:31:16.755Z,99875.31
2023-01-10T00:32:19.864Z,99871.91
2023-01-10T00:33:21.458Z,99871.84
2023-01-10T00:34:25.242Z,99878.53
2023-01-10T00:35:26.735Z,99877.00
2023-01-10T00:36:29.188Z,99879.63
2023-01-10T00:37:32.152Z,99877.16
2023-01-10T00:38:36.952Z,99873.84
2023-01-10T00:39:38.592Z,99886.81
2023-01-10T00:40:41.356Z,99884.72
2023-01-10T00:42:01.836Z,99883.94
2023-01-10T00:43:21.806Z,99887.81
2023-01-10T00:44:23.382Z,99894.19
2023-01-10T00:45:27.051Z,99896.44
2023-01-10T00:46:28.811Z,99898.47
2023-01-10T00:47:31.221Z,99901.16
2023-01-10T00:48:32.804Z,99910.25
2023-01-10T00:49:35.280Z,99911.97
2023-01-10T00:50:36.846Z,99911.25
2023-01-10T00:51:39.295Z,99914.00
2023-01-10T00:52:42.139Z,99919.81
2023-01-10T00:53:44.625Z,99908.13
2023-01-10T00:54:46.158Z,99906.34
2023-01-10T00:55:48.797Z,99918.63
2023-01-10T00:56:50.295Z,99920.53
2023-01-10T00:57:53.137Z,99910.59
2023-01-10T00:58:54.597Z,99920.44
2023-01-10T00:59:57.087Z,99921.47
2023-01-10T01:00:58.626Z,99920.69
2023-01-10T01:02:01.254Z,99921.44
2023-01-10T01:03:02.864Z,99925.91
2023-01-10T01:04:05.553Z,99924.63
2023-01-10T01:05:07.798Z,99921.50
2023-01-10T01:06:10.265Z,99925.97
2023-01-10T01:07:11.785Z,99929.06
2023-01-10T01:08:17.040Z,99921.16
2023-01-10T01:09:18.573Z,99923.72
2023-01-10T01:10:30.108Z,99931.38
2023-01-10T01:11:31.610Z,99931.22
2023-01-10T01:12:34.046Z,99931.88
2023-01-10T01:13:36.285Z,99931.38
2023-01-10T01:14:38.764Z,99938.69
2023-01-10T01:15:40.597Z,99936.75
2023-01-10T01:16:43.091Z,99934.59
2023-01-10T01:17:44.569Z,99935.16
2023-01-10T01:18:47.071Z,99934.28
2023-01-10T01:19:48.583Z,99939.09
2023-01-10T01:20:55.059Z,99941.97
2023-01-10T01:21:56.670Z,99943.38
2023-01-10T01:23:00.758Z,99943.38
2023-01-10T01:24:03.863Z,99945.06
2023-01-10T01:25:07.059Z,99947.31
2023-01-10T01:26:08.627Z,99952.06
2023-01-10T01:27:11.078Z,99955.88
2023-01-10T01:28:12.934Z,99952.25
2023-01-10T01:29:16.756Z,99954.84
2023-01-10T01:30:19.459Z,99954.94
2023-01-10T01:31:22.738Z,99960.41
2023-01-10T01:32:24.673Z,99956.66
2023-01-10T01:33:27.385Z,99963.28
2023-01-10T01:34:28.967Z,99962.59
2023-01-10T01:35:33.329Z,99965.22
2023-01-10T01:36:34.990Z,99973.28
2023-01-10T01:37:37.449Z,99974.88
2023-01-10T01:38:40.482Z,99976.41
2023-01-10T01:39:44.462Z,99982.50
2023-01-10T01:40:45.983Z,99993.47
2023-01-10T01:42:00.458Z,99983.47
2023-01-10T01:43:02.260Z,99988.78
2023-01-10T01:44:06.598Z,99992.31
2023-01-10T01:45:39.058Z,99997.34
2023-01-10T01:46:42.223Z,99995.09
2023-01-10T01:47:49.244Z,100003.06
2023-01-10T01:48:51.726Z,99995.97
2023-01-10T01:49:54.279Z,99999.34
2023-01-10T01:51:05.396Z,100001.38
2023-01-10T01:52:11.011Z,100000.34
2023-01-10T01:53:18.819Z,99999.91
2023-01-10T01:54:21.733Z,100008.66
2023-01-10T01:55:26.474Z,100011.22
2023-01-10T01:56:34.119Z,100008.31
2023-01-10T01:57:36.539Z,100010.19
2023-01-10T01:58:45.051Z,100007.81
2023-01-10T01:59:49.818Z,100012.47
2023-01-10T02:00:52.434Z,100018.56
2023-01-10T02:01:58.478Z,100007.50
2023-01-10T02:03:03.515Z,100023.09
2023-01-10T02:04:12.018Z,100016.94
2023-01-10T02:05:16.238Z,100014.06
2023-01-10T02:06:20.261Z,100023.59
2023-01-10T02:07:24.150Z,100020.16
2023-01-10T02:08:26.640Z,100026.00
2023-01-10T02:09:33.230Z,100016.69
2023-01-10T02:10:43.943Z,100018.16
2023-01-10T02:11:47.088Z,100029.72
2023-01-10T02:12:50.850Z,100031.81
2023-01-10T02:13:54.303Z,100033.16
2023-01-10T02:14:56.126Z,100036.03
2023-01-10T02:15:58.672Z,100029.03
2023-01-10T02:17:00.205Z,100028.38
2023-01-10T02:18:04.362Z,100023.69
2023-01-10T02:19:14.368Z,100032.53
2023-01-10T02:20:18.911Z,100026.94
2023-01-10T02:22:06.282Z,100036.63
2023-01-10T02:23:41.179Z,100042.59
2023-01-10T02:25:19.848Z,100041.25
2023-01-10T02:26:42.788Z,100040.22
2023-01-10T02:28:04.906Z,100039.22
2023-01-10T02:29:48.773Z,100047.88
2023-01-10T02:31:17.729Z,100051.00
2023-01-10T02:32:42.154Z,100046.84
2023-01-10T02:33:58.744Z,100049.56
2023-01-10T02:35:10.356Z,100042.69
2023-01-10T02:36:26.665Z,100059.59
2023-01-10T02:37:40.838Z,100051.81
2023-01-10T02:38:55.806Z,100052.97
2023-01-10T02:40:03.281Z,100052.97
2023-01-10T02:41:15.600Z,100052.63
2023-01-10T02:42:24.106Z,100057.22
2023-01-10T02:43:31.889Z,100060.28
2023-01-10T02:44:39.720Z,100046.75
2023-01-10T02:45:48.840Z,100054.31
2023-01-10T02:46:52.496Z,100057.72
2023-01-10T02:47:56.236Z,100056.38
2023-01-10T02:48:58.724Z,100054.19
2023-01-10T02:50:36.938Z,100060.63
2023-01-10T02:51:38.480Z,100058.22
2023-01-10T02:52:40.940Z,100061.03
2023-01-10T02:53:46.042Z,100058.28
2023-01-10T02:54:50.325Z,100060.94
2023-01-10T02:56:12.845Z,100064.00
2023-01-10T02:57:36.068Z,100065.94
2023-01-10T02:58:54.076Z,100076.03
2023-01-10T03:00:19.095Z,100070.28
2023-01-10T03:01:31.378Z,100070.91
2023-01-10T03:02:45.985Z,100063.19
2023-01-10T03:03:59.994Z,100074.19
2023-01-10T03:05:11.125Z,100072.56
2023-01-10T03:06:24.395Z,100085.38
2023-01-10T03:07:33.887Z,100085.72
2023-01-10T03:08:40.612Z,100080.66
2023-01-10T03:09:52.412Z,100086.00
2023-01-10T03:10:59.644Z,100088.53
2023-01-10T03:12:09.627Z,100098.78
2023-01-10T03:13:18.024Z,100084.75
2023-01-10T03:14:24.518Z,100096.50
2023-01-10T03:15:30.742Z,100094.22
2023-01-10T03:16:36.882Z,100092.94
2023-01-10T03:17:41.659Z,100091.47
2023-01-10T03:18:51.866Z,100103.69
2023-01-10T03:19:59.429Z,100098.66
2023-01-10T03:21:05.005Z,100104.84
2023-01-10T03:22:10.876Z,100101.41
2023-01-10T03:23:15.231Z,100100.72
2023-01-10T03:24:21.456Z,100107.22
2023-01-10T03:25:29.239Z,100106.31
2023-01-10T03:26:37.528Z,100114.09
2023-01-10T03:27:49.266Z,100116.81
2023-01-10T03:28:56.062Z,100118.94
2023-01-10T03:30:04.105Z,100107.03
2023-01-10T03:31:11.223Z,100114.03
2023-01-10T03:32:18.239Z,100108.25
2023-01-10T03:33:24.770Z,100115.88
2023-01-10T03:34:28.926Z,100111.66
2023-01-10T03:35:43.017Z,100116.19
2023-01-10T03:36:53.423Z,100126.75
2023-01-10T03:38:01.399Z,100138.91
2023-01-10T03:39:11.133Z,100125.41
2023-01-10T03:40:19.289Z,100139.63
2023-01-10T03:41:30.809Z,100143.03
2023-01-10T03:42:56.528Z,100156.66
2023-01-10T03:44:25.648Z,100154.72
2023-01-10T03:45:35.626Z,100160.59
2023-01-10T03:46:41.889Z,100161.50
2023-01-10T03:47:50.502Z,100167.41
2023-01-10T03:48:53.946Z,100168.78
2023-01-10T03:50:03.410Z,100168.59
2023-01-10T03:51:07.522Z,100161.16
2023-01-10T03:52:13.181Z,100173.63
2023-01-10T03:53:15.744Z,100176.63
2023-01-10T03:54:18.478Z,100179.81
2023-01-10T03:55:23.149Z,100179.78
2023-01-10T03:56:25.601Z,100168.94
2023-01-10T03:57:27.132Z,100184.28
2023-01-10T03:58:30.231Z,100186.69
2023-01-10T03:59:32.196Z,100191.97
2023-01-10T04:00:34.686Z,100187.19
2023-01-10T04:01:36.280Z,100191.19
2023-01-10T04:02:39.055Z,100198.53
2023-01-10T04:03:40.633Z,100203.78
2023-01-10T04:04:43.229Z,100205.00
2023-01-10T04:05:46.087Z,100200.03
2023-01-10T04:06:48.601Z,100210.72
2023-01-10T04:07:50.107Z,100207.94
2023-01-10T04:08:52.596Z,100209.66
2023-01-10T04:09:54.265Z,100208.41
2023-01-10T04:10:56.764Z,100213.69
2023-01-10T04:11:58.260Z,100213.34
2023-01-10T04:13:01.264Z,100215.91
2023-01-10T04:14:02.797Z,100222.44
2023-01-10T04:15:06.131Z,100225.78
2023-01-10T04:16:08.435Z,100214.97
2023-01-10T04:17:10.922Z,100218.34
2023-01-10T04:18:13.063Z,100228.53
2023-01-10T04:19:15.563Z,100229.75
2023-01-10T04:20:17.284Z,100225.59
2023-01-10T04:21:21.238Z,100224.69
2023-01-10T04:22:22.825Z,100229.78
2023-01-10T04:23:25.249Z,100238.69
2023-01-10T04:24:26.728Z,100232.56
2023-01-10T04:25:29.152Z,100233.97
2023-01-10T04:26:30.694Z,100242.78
2023-01-10T04:27:33.147Z,100246.81
2023-01-10T04:28:34.699Z,100250.59
2023-01-10T04:29:37.181Z,100243.75
2023-01-10T04:30:38.709Z,100248.19
2023-01-10T04:31:41.697Z,100250.22
2023-01-10T04:32:43.249Z,100242.00
2023-01-10T04:33:45.792Z,100247.59
2023-01-10T04:34:47.274Z,100252.91
2023-01-10T04:35:49.913Z,100250.34
2023-01-10T04:36:53.682Z,100257.50
2023-01-10T04:37:55.228Z,100262.59
2023-01-10T04:38:57.738Z,100262.06
2023-01-10T04:39:59.299Z,100258.63
2023-01-10T04:41:01.748Z,100259.53
2023-01-10T04:42:03.607Z,100264.84
2023-01-10T04:43:06.033Z,100262.38
2023-01-10T04:44:07.960Z,100272.03
2023-01-10T04:45:13.534Z,100278.75
2023-01-10T04:46:15.216Z,100272.31
2023-01-10T04:47:17.807Z,100280.19
2023-01-10T04:48:19.575Z,100281.44
2023-01-10T04:49:22.179Z,100290.81
2023-01-10T04:50:23.883Z,100277.41
2023-01-10T04:51:26.624Z,100289.09
2023-01-10T04:52:29.412Z,100297.00
2023-01-10T04:53:31.858Z,100294.06
2023-01-10T04:54:33.377Z,100303.13
2023-01-10T04:55:35.814Z,100292.59
2023-01-10T04:56:37.401Z,100301.88
2023-01-10T04:57:39.899Z,100300.81
2023-01-10T04:58:41.397Z,100304.09
2023-01-10T04:59:43.842Z,100300.78
2023-01-10T05:00:45.382Z,100297.41
2023-01-10T05:01:47.972Z,100303.69
2023-01-10T05:02:49.677Z,100301.75
2023-01-10T05:03:53.224Z,100305.31
2023-01-10T05:04:55.680Z,100308.59
2023-01-10T05:05:58.301Z,100308.91
2023-01-10T05:07:00.716Z,100317.59
2023-01-10T05:08:03.919Z,100311.47
2023-01-10T05:09:06.556Z,100313.19
2023-01-10T05:10:09.554Z,100315.66
2023-01-10T05:11:12.460Z,100320.47
2023-01-10T05:12:13.926Z,100322.25
2023-01-10T05:13:16.326Z,100322.41
2023-01-10T05:14:18.925Z,100336.00
2023-01-10T05:15:21.151Z,100318.16
2023-01-10T05:16:25.307Z,100333.72
2023-01-10T05:17:27.213Z,100335.03
2023-01-10T05:18:30.746Z,100341.88
2023-01-10T05:19:32.348Z,100340.91
2023-01-10T05:20:34.934Z,100346.81
2023-01-10T05:21:36.405Z,100351.13
2023-01-10T05:22:38.826Z,100357.22
2023-01-10T05:23:41.740Z,100356.72
2023-01-10T05:24:44.161Z,100354.81
2023-01-10T05:25:45.820Z,100356.13
2023-01-10T05:26:48.248Z,100352.94
2023-01-10T05:27:49.695Z,100358.78
2023-01-10T05:28:52.566Z,100357.03
2023-01-10T05:29:54.132Z,100361.41
2023-01-10T05:30:56.567Z,100363.91
2023-01-10T05:31:58.130Z,100366.13
2023-01-10T05:33:00.592Z,100364.44
2023-01-10T05:34:02.059Z,100375.22
2023-01-10T05:35:04.994Z,100369.84
2023-01-10T05:36:07.798Z,100368.69
2023-01-10T05:37:10.240Z,100369.72
2023-01-10T05:38:11.710Z,100370.34
2023-01-10T05:39:15.559Z,100365.34
2023-01-10T05:40:17.389Z,100369.34
2023-01-10T05:41:19.926Z,100376.19
2023-01-10T05:42:21.405Z,100377.78
2023-01-10T05:43:23.878Z,100382.69
2023-01-10T05:44:25.324Z,100372.06
2023-01-10T05:45:27.725Z,100391.72
2023-01-10T05:46:29.239Z,100391.19
2023-01-10T05:47:31.699Z,100394.78
2023-01-10T05:48:33.220Z,100381.13
2023-01-10T05:49:35.627Z,100394.41
2023-01-10T05:50:37.145Z,100399.09
2023-01-10T05:51:39.572Z,100391.16
2023-01-10T05:52:41.138Z,100395.13
2023-01-10T05:53:43.591Z,100398.94
2023-01-10T05:54:46.401Z,100403.13
2023-01-10T05:55:54.087Z,100406.56
2023-01-10T05:56:56.556Z,100407.97
2023-01-10T05:57:58.061Z,100404.91
2023-01-10T05:59:17.033Z,100414.97
2023-01-10T06:00:25.103Z,100415.53
2023-01-10T06:01:26.731Z,100416.59
2023-01-10T06:02:29.292Z,100425.25
2023-01-10T06:03:33.369Z,100423.78
2023-01-10T06:04:38.461Z,100421.84
2023-01-10T06:05:39.949Z,100424.97
2023-01-10T06:06:42.412Z,100428.06
2023-01-10T06:07:45.248Z,100426.38
2023-01-10T06:08:47.672Z,100429.09
2023-01-10T06:09:51.356Z,100439.47
2023-01-10T06:10:53.986Z,100434.13
2023-01-10T06:11:55.834Z,100444.06
2023-01-10T06:12:58.244Z,100434.94
2023-01-10T06:13:59.764Z,100436.09
2023-01-10T06:15:03.280Z,100448.38
2023-01-10T06:16:05.566Z,100444.16
2023-01-10T06:17:10.176Z,100440.47
2023-01-10T06:18:14.721Z,100450.69
2023-01-10T06:19:17.181Z,100452.19
2023-01-10T06:20:19.850Z,100454.84
2023-01-10T06:21:21.465Z,100463.78
2023-01-10T06:22:23.879Z,100463.19
2023-01-10T06:23:25.546Z,100459.28
2023-01-10T06:24:28.176Z,100467.41
2023-01-10T06:25:31.044Z,100470.13
2023-01-10T06:26:33.700Z,100479.72
2023-01-10T06:27:35.276Z,100470.13
2023-01-10T06:28:37.760Z,100478.00
2023-01-10T06:29:39.220Z,100481.28
2023-01-10T06:30:43.255Z,100479.56
2023-01-10T06:31:44.832Z,100485.66
2023-01-10T06:32:47.308Z,100478.53
2023-01-10T06:33:50.202Z,100481.66
2023-01-10T06:34:52.633Z,100487.03
2023-01-10T06:35:54.138Z,100491.44
2023-01-10T06:36:56.567Z,100492.91
2023-01-10T06:37:59.407Z,100495.94
2023-01-10T06:39:01.946Z,100498.38
2023-01-10T06:40:04.020Z,100500.91
2023-01-10T06:41:13.746Z,100504.72
2023-01-10T06:42:15.246Z,100510.78
2023-01-10T06:43:17.702Z,100505.56
2023-01-10T06:44:19.202Z,100514.84
2023-01-10T06:45:22.086Z,100511.31
2023-01-10T06:46:24.607Z,100508.38
2023-01-10T06:47:26.105Z,100521.31
2023-01-10T06:48:28.566Z,100511.66
2023-01-10T06:49:30.409Z,100515.75
2023-01-10T06:50:32.867Z,100517.88
2023-01-10T06:51:34.494Z,100524.28
2023-01-10T06:52:37.952Z,100527.56
2023-01-10T06:53:39.621Z,100530.84
2023-01-10T06:54:42.113Z,100530.13
2023-01-10T06:55:43.584Z,100533.72
2023-01-10T06:56:48.403Z,100528.72
2023-01-10T06:57:55.414Z,100540.13
2023-01-10T06:58:57.832Z,100526.31
2023-01-10T06:59:59.313Z,100539.53
2023-01-10T07:01:01.889Z,100542.91
2023-01-10T07:02:04.531Z,100543.16
2023-01-10T07:03:06.126Z,100547.00
2023-01-10T07:04:08.657Z,100543.81
2023-01-10T07:05:11.587Z,100541.41
2023-01-10T07:06:14.680Z,100555.47
2023-01-10T07:07:16.219Z,100556.94
2023-01-10T07:08:18.661Z,100560.38
2023-01-10T07:09:21.057Z,100554.81
2023-01-10T07:10:22.598Z,100563.50
2023-01-10T07:11:25.107Z,100558.75
2023-01-10T07:12:28.837Z,100571.03
2023-01-10T07:13:31.242Z,100572.53
2023-01-10T07:14:32.924Z,100568.34
2023-01-10T07:15:35.346Z,100577.03
2023-01-10T07:16:37.945Z,100573.44
2023-01-10T07:17:39.669Z,100575.34
2023-01-10T07:18:43.744Z,100580.28
2023-01-10T07:19:45.265Z,100587.91
2023-01-10T07:20:47.713Z,100584.16
2023-01-10T07:21:50.175Z,100596.16
2023-01-10T07:22:56.001Z,100593.13
2023-01-10T07:23:58.433Z,100601.66
2023-01-10T07:25:00.047Z,100596.16
2023-01-10T07:26:04.486Z,100601.00
2023-01-10T07:27:06.907Z,100598.78
2023-01-10T07:28:09.766Z,100601.31
2023-01-10T07:29:12.243Z,100610.03
2023-01-10T07:30:15.202Z,100607.00
2023-01-10T07:31:18.825Z,100616.69
2023-01-10T07:32:21.316Z,100621.22
2023-01-10T07:33:25.538Z,100611.53
2023-01-10T07:34:28.022Z,100623.59
2023-01-10T07:35:30.147Z,100624.56
2023-01-10T07:36:39.184Z,100620.63
2023-01-10T07:37:41.248Z,100632.84
2023-01-10T07:38:43.707Z,100634.31
2023-01-10T07:39:46.155Z,100636.69
2023-01-10T07:40:48.857Z,100634.88
2023-01-10T07:41:52.761Z,100645.06
2023-01-10T07:42:57.566Z,100645.97
2023-01-10T07:44:00.367Z,100654.44
2023-01-10T07:45:02.791Z,100657.88
2023-01-10T07:46:08.209Z,100654.44
2023-01-10T07:47:10.656Z,100654.25
2023-01-10T07:48:12.233Z,100660.56
2023-01-10T07:49:15.040Z,100649.00
2023-01-10T07:50:18.085Z,100656.88
2023-01-10T07:51:23.999Z,100663.28
2023-01-10T07:52:26.479Z,100657.06
2023-01-10T07:53:30.356Z,100662.63
2023-01-10T07:54:32.050Z,100661.81
2023-01-10T07:55:36.210Z,100657.06
2023-01-10T07:56:39.340Z,100647.34
2023-01-10T07:57:41.792Z,100667.56
2023-01-10T07:58:46.234Z,100668.03
2023-01-10T07:59:49.080Z,100669.53
2023-01-10T08:00:51.556Z,100666.72
2023-01-10T08:01:54.109Z,100664.63
2023-01-10T08:02:57.318Z,100671.13
2023-01-10T08:03:59.912Z,100658.81
2023-01-10T08:05:01.549Z,100671.94
2023-01-10T08:06:06.021Z,100685.50
2023-01-10T08:07:08.499Z,100684.00
2023-01-10T08:08:12.553Z,100679.25
2023-01-10T08:09:15.242Z,100691.13
2023-01-10T08:10:19.089Z,100690.75
2023-01-10T08:11:21.685Z,100692.28
2023-01-10T08:12:24.638Z,100700.13
2023-01-10T08:13:29.398Z,100697.06
2023-01-10T08:14:31.851Z,100709.47
2023-01-10T08:15:34.809Z,100700.03
2023-01-10T08:16:37.237Z,100698.22
2023-01-10T08:17:38.846Z,100697.94
2023-01-10T08:18:43.047Z,100693.50
2023-01-10T08:19:44.807Z,100698.63
2023-01-10T08:20:48.421Z,100696.91
2023-01-10T08:21:49.917Z,100687.63
2023-01-10T08:22:52.415Z,100703.72
2023-01-10T08:23:55.165Z,100702.38
2023-01-10T08:24:56.682Z,100711.59
2023-01-10T08:25:59.313Z,100713.34
2023-01-10T08:27:02.223Z,100710.91
2023-01-10T08:28:03.867Z,100715.44
2023-01-10T08:29:06.441Z,100714.31
2023-01-10T08:30:10.145Z,100718.47
2023-01-10T08:31:14.012Z,100729.31
2023-01-10T08:32:16.544Z,100719.72
2023-01-10T08:33:22.974Z,100716.66
2023-01-10T08:34:24.573Z,100713.13
2023-01-10T08:35:27.138Z,100707.28
2023-01-10T08:36:35.710Z,100720.53
2023-01-10T08:37:38.195Z,100710.44
2023-01-10T08:38:40.626Z,100720.59
2023-01-10T08:39:43.025Z,100720.28
2023-01-10T08:40:45.499Z,100726.69
2023-01-10T08:41:49.263Z,100718.22
2023-01-10T08:42:58.564Z,100716.31
2023-01-10T08:44:01.295Z,100719.78
2023-01-10T08:45:05.481Z,100737.44
2023-01-10T08:46:07.566Z,100724.84
2023-01-10T08:47:14.461Z,100749.59
2023-01-10T08:48:16.897Z,100735.66
2023-01-10T08:49:19.453Z,100744.75
2023-01-10T08:50:22.024Z,100749.00
2023-01-10T08:51:24.472Z,100746.28
2023-01-10T08:52:25.953Z,100745.25
2023-01-10T08:53:31.841Z,100738.84
2023-01-10T08:54:34.490Z,100744.75
2023-01-10T08:55:39.215Z,100738.84
2023-01-10T08:56:41.990Z,100749.72
2023-01-10T08:57:44.759Z,100742.28
2023-01-10T08:58:47.237Z,100744.13
2023-01-10T08:59:49.729Z,100739.69
2023-01-10T09:00:52.282Z,100718.19
2023-01-10T09:01:54.821Z,100750.22
2023-01-10T09:02:58.794Z,100746.09
2023-01-10T09:04:01.250Z,100748.66
2023-01-10T09:05:02.741Z,100758.50
2023-01-10T09:06:05.481Z,100749.09
2023-01-10T09:07:07.980Z,100757.00
2023-01-10T09:08:09.939Z,100757.72
2023-01-10T09:09:12.371Z,100764.09
2023-01-10T09:10:14.945Z,100761.47
2023-01-10T09:11:16.503Z,100758.94
2023-01-10T09:12:36.566Z,100774.66
2023-01-10T09:13:40.133Z,100766.25
2023-01-10T09:14:41.622Z,100773.81
2023-01-10T09:15:44.432Z,100761.38
2023-01-10T09:16:46.276Z,100766.13
2023-01-10T09:17:49.741Z,100765.53
2023-01-10T09:18:54.410Z,100771.69
2023-01-10T09:19:56.289Z,100773.78
2023-01-10T09:20:58.738Z,100773.38
2023-01-10T09:22:01.190Z,100780.34
2023-01-10T09:23:12.403Z,100781.25
2023-01-10T09:24:14.022Z,100777.31
2023-01-10T09:25:16.628Z,100785.06
2023-01-10T09:26:19.049Z,100782.66
2023-01-10T09:27:21.744Z,100779.94
2023-01-10T09:28:24.887Z,100784.13
2023-01-10T09:29:27.639Z,100777.81
2023-01-10T09:30:31.474Z,100784.72
2023-01-10T09:31:34.894Z,100772.72
2023-01-10T09:32:37.404Z,100777.91
2023-01-10T09:33:46.754Z,100781.75
2023-01-10T09:34:51.107Z,100783.06
2023-01-10T09:35:53.551Z,100784.22
2023-01-10T09:36:55.187Z,100763.66
2023-01-10T09:37:59.063Z,100779.84
2023-01-10T09:39:01.557Z,100787.91
2023-01-10T09:40:03.757Z,100796.03
2023-01-10T09:41:21.644Z,100795.22
2023-01-10T09:42:35.833Z,100795.78
2023-01-10T09:43:48.766Z,100803.22
2023-01-10T09:45:01.145Z,100805.13
2023-01-10T09:46:09.542Z,100798.41
2023-01-10T09:47:22.847Z,100801.63
2023-01-10T09:48:32.420Z,100808.53
2023-01-10T09:49:49.058Z,100809.63
2023-01-10T09:51:10.060Z,100811.66
2023-01-10T09:52:17.714Z,100822.50
2023-01-10T09:53:24.016Z,100821.00
2023-01-10T09:54:29.983Z,100817.91
2023-01-10T09:55:33.761Z,100810.34
2023-01-10T09:56:37.220Z,100826.78
2023-01-10T09:57:39.672Z,100824.16
2023-01-10T09:58:44.735Z,100829.66
2023-01-10T09:59:51.157Z,100835.13
2023-01-10T10:00:57.619Z,100826.59
2023-01-10T10:02:08.196Z,100836.97
2023-01-10T10:03:20.452Z,100840.69
2023-01-10T10:04:28.298Z,100844.38
2023-01-10T10:05:30.230Z,100839.91
2023-01-10T10:06:34.530Z,100837.75
2023-01-10T10:07:36.454Z,100836.84
2023-01-10T10:08:39.893Z,100837.25
2023-01-10T10:09:44.244Z,100834.22
2023-01-10T10:10:55.438Z,100820.53
2023-01-10T10:12:18.493Z,100816.56
2023-01-10T10:13:28.150Z,100825.91
2023-01-10T10:14:45.043Z,100824.22
2023-01-10T10:15:54.447Z,100821.44
2023-01-10T10:17:13.568Z,100823.34
2023-01-10T10:18:28.560Z,100813.09
2023-01-10T10:19:39.800Z,100833.00
2023-01-10T10:20:52.441Z,100825.00
2023-01-10T10:22:06.288Z,100832.88
2023-01-10T10:23:29.248Z,100826.13
2023-01-10T10:24:50.448Z,100817.41
2023-01-10T10:26:02.559Z,100817.41
2023-01-10T10:27:17.227Z,100809.41
2023-01-10T10:28:59.955Z,100798.59
2023-01-10T10:30:18.968Z,100803.03
2023-01-10T10:31:33.016Z,100793.69
2023-01-10T10:32:51.604Z,100783.47
2023-01-10T10:34:03.438Z,100791.94
2023-01-10T10:35:14.005Z,100814.78
2023-01-10T10:36:23.846Z,100810.56
2023-01-10T10:37:33.385Z,100822.13
2023-01-10T10:38:38.954Z,100826.13
2023-01-10T10:39:48.310Z,100814.59
2023-01-10T10:40:52.874Z,100806.22
2023-01-10T10:41:56.229Z,100799.38
2023-01-10T10:43:02.656Z,100808.47
2023-01-10T10:44:18.450Z,100784.66
2023-01-10T10:45:28.912Z,100802.56
2023-01-10T10:46:32.096Z,100798.00
2023-01-10T10:47:37.014Z,100796.44
2023-01-10T10:48:43.479Z,100808.13
2023-01-10T10:49:51.324Z,100810.06
2023-01-10T10:51:04.312Z,100814.59
2023-01-10T10:52:16.379Z,100809.63
2023-01-10T10:53:20.208Z,100810.84
2023-01-10T10:54:23.192Z,100806.22
2023-01-10T10:55:29.787Z,100800.22
2023-01-10T10:56:32.258Z,100787.53
2023-01-10T10:57:38.775Z,100807.00
2023-01-10T10:58:49.229Z,100798.34
2023-01-10T10:59:51.970Z,100812.50
2023-01-10T11:00:54.609Z,100825.16
2023-01-10T11:01:56.310Z,100815.59
2023-01-10T11:03:04.263Z,100814.72
2023-01-10T11:04:11.155Z,100810.81
2023-01-10T11:05:18.126Z,100812.06
2023-01-10T11:06:21.345Z,100819.00
2023-01-10T11:07:24.652Z,100807.78
2023-01-10T11:08:30.896Z,100825.22
2023-01-10T11:09:34.914Z,100825.94
2023-01-10T11:10:38.306Z,100828.41
2023-01-10T11:11:45.007Z,100827.53
2023-01-10T11:12:51.041Z,100829.44
2023-01-10T11:13:55.914Z,100834.16
2023-01-10T11:14:58.951Z,100833.16
2023-01-10T11:16:01.839Z,100821.28
2023-01-10T11:17:20.455Z,100830.06
2023-01-10T11:18:25.589Z,100842.53
2023-01-10T11:19:30.039Z,100833.63
2023-01-10T11:20:31.882Z,100842.75
2023-01-10T11:21:34.834Z,100836.53
2023-01-10T11:22:46.619Z,100823.69
2023-01-10T11:23:54.463Z,100840.56
2023-01-10T11:25:00.653Z,100832.38
2023-01-10T11:26:02.723Z,100827.22
2023-01-10T11:27:16.421Z,100822.16
2023-01-10T11:28:23.453Z,100828.06
2023-01-10T11:29:28.334Z,100829.22
2023-01-10T11:30:33.440Z,100825.06
2023-01-10T11:31:36.488Z,100828.50
2023-01-10T11:32:41.598Z,100838.28
2023-01-10T11:33:43.256Z,100843.69
2023-01-10T11:34:53.903Z,100833.34
2023-01-10T11:35:59.206Z,100839.19
2023-01-10T11:37:03.741Z,100848.84
2023-01-10T11:38:21.925Z,100844.31
2023-01-10T11:39:27.813Z,100843.03
2023-01-10T11:40:31.594Z,100848.28
2023-01-10T11:41:36.063Z,100853.38
2023-01-10T11:42:38.626Z,100829.78
2023-01-10T11:43:42.063Z,100856.47
2023-01-10T11:44:43.661Z,100853.94
2023-01-10T11:45:46.209Z,100857.56
2023-01-10T11:46:50.302Z,100837.69
2023-01-10T11:47:55.072Z,100851.66
2023-01-10T11:49:06.672Z,100848.19
2023-01-10T11:50:10.429Z,100848.34
2023-01-10T11:51:23.575Z,100852.25
2023-01-10T11:52:29.596Z,100854.59
2023-01-10T11:53:38.933Z,100845.59
2023-01-10T11:54:43.319Z,100854.72
2023-01-10T11:55:48.307Z,100849.38
2023-01-10T11:56:57.424Z,100854.13
2023-01-10T11:58:04.617Z,100856.06
2023-01-10T11:59:13.490Z,100855.13
2023-01-10T12:00:16.723Z,100844.13
2023-01-10T12:01:28.105Z,100847.13
2023-01-10T12:02:34.616Z,100849.09
2023-01-10T12:03:38.335Z,100843.38
2023-01-10T12:04:44.616Z,100850.44
2023-01-10T12:05:51.840Z,100854.66
2023-01-10T12:06:58.438Z,100850.94
2023-01-10T12:08:06.437Z,100853.19
2023-01-10T12:09:40.564Z,100850.72
2023-01-10T12:10:42.236Z,100854.00
2023-01-10T12:11:46.271Z,100854.47
2023-01-10T12:12:57.066Z,100859.38
2023-01-10T12:14:00.732Z,100853.50
2023-01-10T12:15:23.905Z,100857.47
2023-01-10T12:16:28.266Z,100859.75
2023-01-10T12:17:31.542Z,100852.84
2023-01-10T12:18:34.048Z,100861.06
2023-01-10T12:19:36.668Z,100863.47
2023-01-10T12:20:48.947Z,100864.03
2023-01-10T12:21:52.073Z,100862.88
2023-01-10T12:22:58.637Z,100860.19
2023-01-10T12:24:05.944Z,100858.19
2023-01-10T12:25:19.273Z,100858.75
2023-01-10T12:26:22.574Z,100851.78
2023-01-10T12:27:27.413Z,100861.91
2023-01-10T12:28:30.470Z,100859.13